Time;durP1;ratioP1;P1;durP2;ratioP2;P2;SDS_P1;SDS_P2;PMS_P1;PMS_P2;Temp;Humidity;BMP_temperature;BMP_pressure;BME280_temperature;BME280_humidity;BME280_pressure;Samples;Min_cycle;Max_cycle;Signal;HPM_P1;HPM_P2
2022/11/03 00:01:12;;;;;;;;;;;;;;;-0.52;72.23;99704.63;5090018;28;19982;-65
2022/11/03 00:03:37;;;;;;;;;;;;;;;-0.51;72.41;99699.03;5105819;28;20287;-64
2022/11/03 00:06:05;;;;;;;;;;;;;;;-0.48;72.48;99705.88;5106116;28;20471;-64
2022/11/03 00:08:31;;;;;;;;;;;;;;;-0.47;72.15;99705.69;5100844;28;19934;-64
2022/11/03 00:11:00;;;;;;;;;;;;;;;-0.46;72.15;99706.50;5084797;28;19957;-65
2022/11/03 00:13:26;;;;;;;;;;;;;;;-0.64;72.07;99681.06;5096001;28;19989;-64
2022/11/03 00:15:52;;;;;;;;;;;;;;;-0.48;72.14;99703.19;5105089;28;19932;-64
2022/11/03 00:18:17;;;;;;;;;;;;;;;-0.50;72.15;99700.69;5103144;28;19932;-65
2022/11/03 00:20:43;;;;;;;;;;;;;;;-0.49;72.38;99701.53;5105184;28;19939;-64
2022/11/03 00:23:10;;;;;;;;;;;;;;;-0.48;72.17;99703.19;5108036;28;19928;-64
2022/11/03 00:25:36;;;;;;;;;;;;;;;-0.49;72.11;99713.09;5107523;28;19935;-64
2022/11/03 00:28:02;;;;;;;;;;;;;;;-0.46;72.27;99711.88;5111509;28;19928;-65
2022/11/03 00:30:28;;;;;;;;;;;;;;;-0.46;72.33;99710.03;5108404;28;19928;-64
2022/11/03 00:32:53;;;;;;;;;;;;;;;-0.47;72.31;99703.00;5107885;28;19980;-63
2022/11/03 00:35:19;;;;;;;;;;;;;;;-0.52;72.44;99708.13;5107617;28;19928;-63
2022/11/03 00:37:45;;;;;;;;;;;;;;;-0.60;72.58;99711.03;5089373;28;20481;-63
2022/11/03 00:40:12;;;;;;;;;;;;;;;-0.66;72.84;99718.03;5105438;28;20412;-64
2022/11/03 00:42:38;;;;;;;;;;;;;;;-0.67;72.90;99705.63;5109519;28;20047;-65
2022/11/03 00:45:04;;;;;;;;;;;;;;;-0.67;73.16;99719.06;5108616;28;20525;-64
2022/11/03 00:47:29;;;;;;;;;;;;;;;-0.66;72.97;99717.19;5108284;27;19931;-64
2022/11/03 00:49:55;;;;;;;;;;;;;;;-0.64;72.83;99724.03;5106917;28;20394;-64
2022/11/03 00:52:21;;;;;;;;;;;;;;;-0.66;72.77;99725.25;5087976;28;19928;-64
2022/11/03 00:54:46;;;;;;;;;;;;;;;-0.72;72.79;99733.09;5080326;28;19928;-64
2022/11/03 00:57:14;;;;;;;;;;;;;;;-0.75;73.18;99732.66;5086412;28;20007;-64
2022/11/03 00:59:39;;;;;;;;;;;;;;;-0.75;72.98;99729.97;5096591;28;20453;-63
2022/11/03 01:02:05;;;;;;;;;;;;;;;-0.80;73.15;99730.56;5098713;28;19927;-63
2022/11/03 01:07:18;;;;;;;;;;;;;;;-0.87;73.34;99733.25;5085482;28;20444;-63
2022/11/03 01:09:44;;;;;;;;;;;;;;;-0.89;73.26;99743.34;5088299;28;19928;-64
2022/11/03 01:12:11;;;;;;;;;;;;;;;-0.90;73.22;99739.00;5089204;28;20753;-65
2022/11/03 01:14:39;;;;;;;;;;;;;;;-0.93;73.22;99739.44;5088419;28;20292;-65
2022/11/03 01:17:06;;;;;;;;;;;;;;;-0.91;73.66;99740.03;5089543;28;19928;-65
2022/11/03 01:19:32;;;;;;;;;;;;;;;-0.88;73.31;99739.63;5081544;28;20280;-65
2022/11/03 01:21:57;;;;;;;;;;;;;;;-0.85;73.34;99741.09;5088342;28;19958;-65
2022/11/03 01:24:23;;;;;;;;;;;;;;;-0.83;73.29;99740.91;5087145;28;19974;-65
2022/11/03 01:26:49;;;;;;;;;;;;;;;-0.82;73.19;99740.69;5086318;28;19928;-65
2022/11/03 01:29:15;;;;;;;;;;;;;;;-0.80;73.11;99735.13;5087887;28;19928;-65
2022/11/03 01:31:42;;;;;;;;;;;;;;;-0.79;73.21;99737.59;5087377;28;19935;-66
2022/11/03 01:34:11;;;;;;;;;;;;;;;-0.78;72.93;99733.06;5086424;28;19928;-65
2022/11/03 01:36:38;;;;;;;;;;;;;;;-0.77;73.11;99729.34;5085898;28;20122;-65
2022/11/03 01:39:04;;;;;;;;;;;;;;;-0.78;72.80;99731.22;5086394;28;20326;-65
2022/11/03 01:41:30;;;;;;;;;;;;;;;-0.76;72.88;99734.53;5085100;28;19928;-65
2022/11/03 01:44:14;;;;;;;;;;;;;;;-0.75;72.80;99744.25;5087630;28;19928;-65
2022/11/03 01:46:41;;;;;;;;;;;;;;;-0.75;72.71;99738.88;5089169;28;20054;-65
2022/11/03 01:49:11;;;;;;;;;;;;;;;-0.77;72.68;99740.94;5100039;28;19934;-65
2022/11/03 01:51:37;;;;;;;;;;;;;;;-0.77;72.99;99740.09;5108729;28;20433;-65
2022/11/03 01:54:04;;;;;;;;;;;;;;;-0.77;72.93;99740.94;5106493;28;20010;-65
2022/11/03 01:56:31;;;;;;;;;;;;;;;-0.76;72.91;99737.22;5089316;28;19989;-63
2022/11/03 01:58:57;;;;;;;;;;;;;;;-0.75;72.94;99736.19;5086506;28;19928;-63
2022/11/03 02:01:23;;;;;;;;;;;;;;;-0.76;72.83;99739.06;5085423;28;19974;-63
2022/11/03 02:03:51;;;;;;;;;;;;;;;-0.79;72.94;99734.91;5087741;28;19928;-63
2022/11/03 02:06:20;;;;;;;;;;;;;;;-0.79;72.79;99732.22;5090079;28;19932;-65
2022/11/03 02:08:48;;;;;;;;;;;;;;;-0.79;72.93;99732.22;5087002;28;20422;-65
2022/11/03 02:13:59;;;;;;;;;;;;;;;-0.78;72.45;99731.22;5085468;28;19950;-64
2022/11/03 02:16:26;;;;;;;;;;;;;;;-0.83;72.68;99743.59;5090717;28;19928;-65
2022/11/03 02:18:52;;;;;;;;;;;;;;;-0.89;72.75;99737.19;5078354;28;19931;-65
2022/11/03 02:21:24;;;;;;;;;;;;;;;-0.88;72.89;99736.16;5105837;28;19979;-65
2022/11/03 02:23:56;;;;;;;;;;;;;;;-0.86;72.95;99734.09;5084394;28;19950;-64
2022/11/03 02:26:23;;;;;;;;;;;;;;;-0.86;72.91;99740.28;5106759;28;19928;-65
2022/11/03 02:28:49;;;;;;;;;;;;;;;-0.86;73.05;99740.28;5098973;28;20463;-65
2022/11/03 02:31:20;;;;;;;;;;;;;;;-0.84;73.14;99733.88;5085133;28;19932;-64
2022/11/03 02:33:48;;;;;;;;;;;;;;;-0.82;73.28;99739.88;5083243;28;20410;-63
2022/11/03 02:36:16;;;;;;;;;;;;;;;-0.86;73.29;99742.13;5071625;28;19927;-63
2022/11/03 02:38:45;;;;;;;;;;;;;;;-0.83;73.41;99738.22;5092506;28;19927;-65
2022/11/03 02:41:11;;;;;;;;;;;;;;;-0.84;73.30;99737.38;5102091;28;19977;-65
2022/11/03 02:43:40;;;;;;;;;;;;;;;-0.84;73.39;99733.88;5108615;28;19955;-63
2022/11/03 02:46:06;;;;;;;;;;;;;;;-0.86;73.44;99734.09;5101776;28;19951;-63
2022/11/03 02:48:32;;;;;;;;;;;;;;;-0.87;73.38;99737.81;5097420;28;19963;-63
2022/11/03 02:50:58;;;;;;;;;;;;;;;-0.87;73.29;99735.94;5099997;28;19967;-64
2022/11/03 02:53:25;;;;;;;;;;;;;;;-0.89;73.58;99732.63;5106929;28;19993;-63
2022/11/03 02:55:54;;;;;;;;;;;;;;;-0.90;73.56;99727.47;5105119;28;19927;-64
2022/11/03 02:58:26;;;;;;;;;;;;;;;-0.92;73.45;99730.34;5103429;28;20299;-64
2022/11/03 03:00:54;;;;;;;;;;;;;;;-0.92;73.51;99730.34;5106774;28;20385;-64
2022/11/03 03:03:23;;;;;;;;;;;;;;;-1.00;73.69;99731.34;5088918;28;20026;-63
2022/11/03 03:05:51;;;;;;;;;;;;;;;-1.00;73.27;99727.84;5088734;28;19935;-63
2022/11/03 03:08:17;;;;;;;;;;;;;;;-1.06;73.49;99732.16;5086959;28;19928;-65
2022/11/03 03:10:44;;;;;;;;;;;;;;;-1.10;73.58;99738.13;5103109;28;19928;-65
2022/11/03 03:13:12;;;;;;;;;;;;;;;-1.11;73.60;99739.16;5103565;28;19927;-65
2022/11/03 03:15:40;;;;;;;;;;;;;;;-1.09;73.40;99742.47;5103058;28;19927;-65
2022/11/03 03:18:13;;;;;;;;;;;;;;;-1.07;73.30;99738.56;5104428;28;19931;-66
2022/11/03 03:20:40;;;;;;;;;;;;;;;-1.09;73.26;99737.09;5105374;28;19932;-65
2022/11/03 03:23:10;;;;;;;;;;;;;;;-1.09;73.50;99731.72;5104489;28;19981;-65
2022/11/03 03:25:38;;;;;;;;;;;;;;;-1.09;73.52;99735.25;5106598;28;19932;-66
2022/11/03 03:28:07;;;;;;;;;;;;;;;-1.09;73.40;99745.13;5102620;28;20398;-66
2022/11/03 03:30:34;;;;;;;;;;;;;;;-1.10;73.35;99749.66;5105218;28;19928;-65
2022/11/03 03:33:02;;;;;;;;;;;;;;;-1.11;73.35;99739.97;5105181;28;19927;-69
2022/11/03 03:35:31;;;;;;;;;;;;;;;-1.13;73.37;99743.88;5106177;28;19928;-65
2022/11/03 03:37:59;;;;;;;;;;;;;;;-1.13;73.05;99742.00;5106238;28;19928;-65
2022/11/03 03:40:39;;;;;;;;;;;;;;;-1.16;73.13;99747.78;5106230;28;19936;-65
2022/11/03 03:43:06;;;;;;;;;;;;;;;-1.17;73.12;99735.41;5105353;28;20434;-65
2022/11/03 03:45:33;;;;;;;;;;;;;;;-1.18;73.18;99736.44;5103972;28;20317;-65
2022/11/03 03:47:59;;;;;;;;;;;;;;;-1.18;73.31;99745.28;5095391;28;20390;-65
2022/11/03 03:50:26;;;;;;;;;;;;;;;-1.18;73.29;99745.28;5088244;28;19970;-63
2022/11/03 03:52:56;;;;;;;;;;;;;;;-1.18;73.21;99744.47;5086434;28;20387;-63
2022/11/03 03:55:24;;;;;;;;;;;;;;;-1.19;73.21;99740.94;5100044;28;20430;-65
2022/11/03 03:57:50;;;;;;;;;;;;;;;-1.20;73.06;99743.84;5092435;28;19927;-65
2022/11/03 04:00:16;;;;;;;;;;;;;;;-1.22;72.91;99745.91;5088478;28;19928;-65
2022/11/03 04:02:41;;;;;;;;;;;;;;;-1.24;72.99;99751.47;5088229;28;19928;-65
2022/11/03 04:05:07;;;;;;;;;;;;;;;-1.23;72.80;99746.94;5085733;28;19928;-65
2022/11/03 04:07:48;;;;;;;;;;;;;;;-1.37;72.89;99736.13;5084527;28;19935;-65
2022/11/03 04:10:16;;;;;;;;;;;;;;;-1.22;72.92;99754.78;5086277;28;19928;-65
2022/11/03 04:23:41;;;;;;;;;;;;;;;-1.19;73.09;99764.28;5087194;28;19981;-65
2022/11/03 04:26:11;;;;;;;;;;;;;;;-1.35;72.98;99734.06;5064770;28;19928;-65
2022/11/03 04:28:36;;;;;;;;;;;;;;;-1.18;73.09;99765.94;5086026;28;19932;-65
2022/11/03 04:31:05;;;;;;;;;;;;;;;-1.15;73.41;99768.22;5084984;28;19981;-65
2022/11/03 04:33:31;;;;;;;;;;;;;;;-1.15;73.06;99766.38;5085399;28;20399;-65
2022/11/03 04:35:58;;;;;;;;;;;;;;;-1.15;72.82;99769.06;5085346;28;20028;-66
2022/11/03 04:38:25;;;;;;;;;;;;;;;-1.13;72.73;99762.69;5084671;28;19928;-65
2022/11/03 04:40:53;;;;;;;;;;;;;;;-1.16;72.86;99774.63;5086736;28;19928;-64
2022/11/03 04:43:21;;;;;;;;;;;;;;;-1.18;72.79;99774.00;5083804;28;20058;-64
2022/11/03 04:45:48;;;;;;;;;;;;;;;-1.16;72.76;99771.94;5082442;28;19928;-65
2022/11/03 04:48:15;;;;;;;;;;;;;;;-1.16;72.68;99772.78;5094777;28;19932;-63
2022/11/03 04:50:41;;;;;;;;;;;;;;;-1.12;72.85;99775.88;5097736;28;20402;-63
2022/11/03 04:53:09;;;;;;;;;;;;;;;-1.10;72.81;99776.50;5099955;28;19928;-64
2022/11/03 04:55:35;;;;;;;;;;;;;;;-1.08;72.72;99781.69;5082971;28;19928;-63
2022/11/03 04:58:05;;;;;;;;;;;;;;;-1.05;72.54;99775.91;5081260;28;19951;-63
2022/11/03 05:00:32;;;;;;;;;;;;;;;-1.05;72.47;99771.38;5101714;28;19928;-64
2022/11/03 05:02:58;;;;;;;;;;;;;;;-1.06;72.47;99764.38;5103155;28;19990;-65
2022/11/03 05:05:25;;;;;;;;;;;;;;;-1.07;72.44;99759.19;5103790;28;20486;-64
2022/11/03 05:07:52;;;;;;;;;;;;;;;-1.06;72.52;99760.84;5099094;28;19939;-64
2022/11/03 05:10:20;;;;;;;;;;;;;;;-1.04;72.40;99765.00;5100113;28;19928;-64
2022/11/03 05:12:46;;;;;;;;;;;;;;;-1.02;72.53;99770.97;5101351;28;20005;-64
2022/11/03 05:15:24;;;;;;;;;;;;;;;-1.02;72.54;99776.34;5105599;28;19957;-65
2022/11/03 05:17:51;;;;;;;;;;;;;;;-1.03;72.38;99774.69;5101842;28;20406;-65
2022/11/03 05:20:26;;;;;;;;;;;;;;;-1.05;72.43;99782.13;5109093;28;19950;-64
2022/11/03 05:22:52;;;;;;;;;;;;;;;-1.08;72.40;99773.63;5105542;28;20442;-63
2022/11/03 05:25:33;;;;;;;;;;;;;;;-1.09;72.47;99783.56;5109204;28;20022;-63
2022/11/03 05:27:58;;;;;;;;;;;;;;;-1.08;72.40;99776.31;5105937;28;20344;-65
2022/11/03 05:30:24;;;;;;;;;;;;;;;-1.09;72.58;99777.34;5105381;28;19932;-65
2022/11/03 05:32:51;;;;;;;;;;;;;;;-1.09;72.46;99785.41;5099643;28;19971;-65
2022/11/03 05:35:19;;;;;;;;;;;;;;;-1.08;72.46;99782.53;5102723;28;20382;-64
2022/11/03 05:37:45;;;;;;;;;;;;;;;-1.06;72.71;99780.47;5104662;28;20010;-64
2022/11/03 05:40:19;;;;;;;;;;;;;;;-1.07;72.55;99778.81;5096774;28;20390;-64
2022/11/03 05:42:49;;;;;;;;;;;;;;;-1.04;72.53;99788.31;5091674;28;20302;-64
2022/11/03 05:45:19;;;;;;;;;;;;;;;-1.03;72.66;99787.28;5105215;28;19935;-65
2022/11/03 05:47:46;;;;;;;;;;;;;;;-1.01;72.27;99777.19;5103230;28;19932;-65
2022/11/03 05:50:18;;;;;;;;;;;;;;;-1.00;72.16;99789.59;5103840;28;19927;-65
2022/11/03 05:52:46;;;;;;;;;;;;;;;-1.02;72.10;99789.78;5073088;28;19932;-65
2022/11/03 05:55:19;;;;;;;;;;;;;;;-1.01;72.07;99785.25;5100663;28;19934;-65
2022/11/03 05:57:45;;;;;;;;;;;;;;;-0.98;72.02;99776.78;5084859;28;20478;-65
2022/11/03 06:00:20;;;;;;;;;;;;;;;-0.98;71.88;99786.69;5094511;28;20031;-65
2022/11/03 06:02:48;;;;;;;;;;;;;;;-1.00;72.00;99785.03;5090068;28;20355;-65
2022/11/03 06:05:17;;;;;;;;;;;;;;;-1.01;71.88;99796.78;5099494;28;19988;-65
2022/11/03 06:07:44;;;;;;;;;;;;;;;-1.00;71.92;99792.28;5099135;28;19935;-65
2022/11/03 06:10:22;;;;;;;;;;;;;;;-0.96;71.93;99793.53;5088428;28;19932;-65
2022/11/03 06:12:49;;;;;;;;;;;;;;;-0.95;71.79;99786.28;5070972;28;19994;-65
2022/11/03 06:15:24;;;;;;;;;;;;;;;-0.98;71.68;99794.75;5084537;28;19936;-65
2022/11/03 06:17:50;;;;;;;;;;;;;;;-1.01;71.95;99794.13;5090084;28;19928;-64
2022/11/03 06:20:19;;;;;;;;;;;;;;;-0.99;71.77;99796.59;5087374;28;19927;-65
2022/11/03 06:22:47;;;;;;;;;;;;;;;-0.95;71.63;99803.22;5095275;28;19939;-65
2022/11/03 06:25:19;;;;;;;;;;;;;;;-0.95;71.73;99799.69;5108209;28;20359;-65
2022/11/03 06:27:45;;;;;;;;;;;;;;;-0.96;71.52;99800.72;5106172;28;20381;-65
2022/11/03 06:30:18;;;;;;;;;;;;;;;-0.93;71.62;99801.16;5090458;28;19928;-65
2022/11/03 06:32:44;;;;;;;;;;;;;;;-0.90;71.30;99803.44;5099003;28;19928;-65
2022/11/03 06:35:11;;;;;;;;;;;;;;;-0.89;71.33;99799.72;5089585;28;19993;-65
2022/11/03 06:37:38;;;;;;;;;;;;;;;-0.87;71.06;99792.31;5099753;28;20027;-65
2022/11/03 06:40:26;;;;;;;;;;;;;;;-0.81;71.08;99792.56;5087894;28;20002;-65
2022/11/03 06:42:53;;;;;;;;;;;;;;;-0.80;70.83;99791.53;5091015;28;20460;-65
2022/11/03 06:45:20;;;;;;;;;;;;;;;-0.78;70.80;99792.16;5096210;28;19981;-65
2022/11/03 06:47:46;;;;;;;;;;;;;;;-0.78;70.73;99805.56;5090685;28;20442;-65
2022/11/03 06:50:19;;;;;;;;;;;;;;;-0.78;70.89;99792.16;5092692;28;19970;-65
2022/11/03 06:52:47;;;;;;;;;;;;;;;-0.80;70.83;99795.03;5101038;28;19939;-65
2022/11/03 06:55:22;;;;;;;;;;;;;;;-0.75;70.85;99791.75;5099618;28;19928;-65
2022/11/03 06:57:48;;;;;;;;;;;;;;;-0.70;70.77;99799.19;5090647;28;19975;-65
2022/11/03 07:00:18;;;;;;;;;;;;;;;-0.68;70.88;99794.47;5092529;28;19983;-65
2022/11/03 07:02:52;;;;;;;;;;;;;;;-0.67;70.74;99796.94;5090671;28;19928;-65
2022/11/03 07:05:21;;;;;;;;;;;;;;;-0.63;70.66;99800.03;5092645;28;20445;-65
2022/11/03 07:07:46;;;;;;;;;;;;;;;-0.73;70.55;99784.31;5095889;28;19971;-64
2022/11/03 07:10:12;;;;;;;;;;;;;;;-0.57;70.55;99794.69;5104848;28;20343;-64
2022/11/03 07:12:40;;;;;;;;;;;;;;;-0.54;70.30;99806.09;5100913;28;20430;-64
2022/11/03 07:15:15;;;;;;;;;;;;;;;-0.54;70.26;99801.53;5089207;28;19928;-64
2022/11/03 07:17:41;;;;;;;;;;;;;;;-0.69;70.08;99777.53;5107941;28;19928;-65
2022/11/03 07:20:12;;;;;;;;;;;;;;;-0.49;70.11;99800.94;5106884;28;19988;-65
2022/11/03 07:22:37;;;;;;;;;;;;;;;-0.49;70.05;99807.13;5106792;28;19934;-64
2022/11/03 07:25:05;;;;;;;;;;;;;;;-0.48;70.02;99808.78;5106445;28;20022;-65
2022/11/03 07:27:34;;;;;;;;;;;;;;;-0.48;69.68;99806.09;5105867;28;19928;-65
2022/11/03 07:30:13;;;;;;;;;;;;;;;-0.48;69.68;99805.28;5093334;28;20378;-65
2022/11/03 07:32:38;;;;;;;;;;;;;;;-0.46;69.72;99812.13;5101286;28;20031;-65
2022/11/03 07:35:19;;;;;;;;;;;;;;;-0.41;69.65;99813.34;5093029;28;20208;-65
2022/11/03 07:37:48;;;;;;;;;;;;;;;-0.41;69.41;99814.16;5086811;28;19928;-65
2022/11/03 07:40:15;;;;;;;;;;;;;;;-0.40;69.49;99802.41;5093646;28;19927;-65
2022/11/03 07:42:41;;;;;;;;;;;;;;;-0.39;69.41;99806.75;5108183;28;19927;-64
2022/11/03 07:45:30;;;;;;;;;;;;;;;-0.41;69.23;99810.66;5108623;28;20425;-65
2022/11/03 07:47:55;;;;;;;;;;;;;;;-0.40;69.25;99815.00;5109261;28;19992;-65
2022/11/03 07:50:21;;;;;;;;;;;;;;;-0.39;68.99;99805.91;5087562;28;20390;-64
2022/11/03 07:52:47;;;;;;;;;;;;;;;-0.40;69.35;99818.50;5069892;28;19932;-64
2022/11/03 07:55:13;;;;;;;;;;;;;;;-0.41;69.16;99810.66;5088674;28;19928;-68
2022/11/03 07:57:39;;;;;;;;;;;;;;;-0.40;69.12;99815.81;5089109;28;19973;-65
2022/11/03 08:00:06;;;;;;;;;;;;;;;-0.39;69.12;99813.97;5086471;28;19939;-65
2022/11/03 08:02:42;;;;;;;;;;;;;;;-0.39;68.91;99812.13;5089502;28;19928;-64
2022/11/03 08:05:08;;;;;;;;;;;;;;;-0.35;68.80;99804.47;5069057;28;19928;-65
2022/11/03 08:07:34;;;;;;;;;;;;;;;-0.31;68.61;99811.13;5096350;28;20464;-65
2022/11/03 08:09:59;;;;;;;;;;;;;;;-0.26;68.45;99807.81;5087627;28;20333;-65
2022/11/03 08:12:26;;;;;;;;;;;;;;;-0.22;68.25;99814.44;5084633;28;19977;-65
2022/11/03 08:14:52;;;;;;;;;;;;;;;-0.19;68.35;99811.34;5104858;28;19928;-65
2022/11/03 08:17:18;;;;;;;;;;;;;;;-0.08;68.15;99820.66;5090807;28;20023;-65
2022/11/03 08:19:45;;;;;;;;;;;;;;;-0.06;67.78;99810.53;5072728;28;19935;-65
2022/11/03 08:22:13;;;;;;;;;;;;;;;-0.07;67.93;99808.88;5087838;28;20340;-66
2022/11/03 08:24:41;;;;;;;;;;;;;;;-0.05;68.02;99806.81;5090398;28;20495;-64
2022/11/03 08:27:07;;;;;;;;;;;;;;;-0.06;67.88;99808.69;5105633;28;19969;-64
2022/11/03 08:29:32;;;;;;;;;;;;;;;-0.09;67.81;99813.63;5107009;28;19928;-64
2022/11/03 08:31:58;;;;;;;;;;;;;;;-0.16;68.16;99810.94;5109028;28;20306;-65
2022/11/03 08:34:24;;;;;;;;;;;;;;;-0.14;67.87;99811.56;5106389;28;19928;-65
2022/11/03 08:36:51;;;;;;;;;;;;;;;-0.19;67.58;99805.97;5101657;28;19950;-64
2022/11/03 08:39:17;;;;;;;;;;;;;;;-0.22;67.96;99809.88;5093815;28;19928;-65
2022/11/03 08:41:43;;;;;;;;;;;;;;;-0.21;68.02;99803.47;5078277;28;20438;-65
2022/11/03 08:44:09;;;;;;;;;;;;;;;-0.17;68.05;99804.72;5105260;28;20334;-65
2022/11/03 08:46:35;;;;;;;;;;;;;;;-0.16;67.76;99808.25;5109184;28;19932;-66
2022/11/03 08:49:01;;;;;;;;;;;;;;;-0.14;68.17;99811.56;5108803;28;19927;-65
2022/11/03 08:51:27;;;;;;;;;;;;;;;-0.06;68.07;99799.78;5094735;28;19928;-65
2022/11/03 08:53:54;;;;;;;;;;;;;;;-0.02;68.04;99798.34;5071085;28;19928;-66
2022/11/03 08:56:20;;;;;;;;;;;;;;;-0.03;67.68;99804.75;5105170;28;19927;-65
2022/11/03 09:22:43;;;;;;;0.30;0.20;;;;;;;0.34;68.65;99801.66;6253535;22;20318;-64
2022/11/03 09:25:09;;;;;;;0.10;0.10;;;;;;;0.41;68.17;99803.31;6258272;22;20043;-64
2022/11/03 09:27:35;;;;;;;0.13;0.10;;;;;;;0.39;67.27;99799.19;6223456;23;20387;-65
2022/11/03 09:30:01;;;;;;;0.10;0.10;;;;;;;0.32;67.18;99799.19;6258627;22;20024;-64
2022/11/03 09:32:30;;;;;;;0.20;0.10;;;;;;;0.21;67.28;99794.44;6234236;22;20020;-64
2022/11/03 09:34:56;;;;;;;0.20;0.15;;;;;;;0.18;67.20;99800.22;6258258;22;20078;-64
2022/11/03 09:37:22;;;;;;;0.57;0.20;;;;;;;0.17;67.34;99795.91;6250309;23;20066;-64
2022/11/03 09:39:49;;;;;;;0.38;0.20;;;;;;;0.23;67.15;99789.69;6222639;23;20399;-64
2022/11/03 09:42:16;;;;;;;;;;;;;;;0.22;67.10;99801.47;6250715;23;20047;-64
2022/11/03 09:44:42;;;;;;;0.17;0.10;;;;;;;0.20;66.90;99798.16;6231216;22;19919;-65
2022/11/03 09:47:18;;;;;;;0.10;0.10;;;;;;;0.16;66.86;99789.66;6197942;23;20022;-64
2022/11/03 09:49:44;;;;;;;0.20;0.20;;;;;;;0.12;67.15;99794.63;6248556;23;20020;-64
2022/11/03 09:52:22;;;;;;;0.10;0.10;;;;;;;0.12;67.31;99797.31;6232948;22;20027;-64
2022/11/03 09:54:54;;;;;;;0.38;0.10;;;;;;;0.14;67.22;99797.94;6232813;22;20108;-64
2022/11/03 09:57:20;;;;;;;0.22;0.20;;;;;;;0.11;67.15;99797.53;6249983;23;20099;-64
2022/11/03 09:59:48;;;;;;;0.25;0.10;;;;;;;0.07;67.36;99789.03;6259785;22;20474;-65
2022/11/03 10:02:21;;;;;;;0.10;0.10;;;;;;;0.09;67.17;99789.66;6249658;23;20377;-64
2022/11/03 10:04:47;;;;;;;0.10;0.10;;;;;;;0.10;67.28;99788.63;6257208;22;20388;-64
2022/11/03 10:07:13;;;;;;;0.10;0.10;;;;;;;0.14;67.22;99797.94;6206457;22;20024;-64
2022/11/03 10:09:45;;;;;;;0.10;0.10;;;;;;;0.17;67.13;99794.00;6258692;22;20066;-64
2022/11/03 10:12:12;;;;;;;0.52;0.22;;;;;;;0.17;67.01;99791.31;6231547;22;20020;-65
2022/11/03 10:14:39;;;;;;;0.10;0.10;;;;;;;0.18;67.01;99792.97;6258364;22;20023;-64
2022/11/03 10:17:08;;;;;;;0.17;0.17;;;;;;;0.19;66.86;99793.81;6220169;23;20043;-64
2022/11/03 10:19:34;;;;;;;0.10;0.10;;;;;;;0.16;66.98;99788.84;6257406;22;20043;-64
2022/11/03 10:22:00;;;;;;;0.47;0.22;;;;;;;0.14;67.21;99791.75;6244414;23;20127;-64
2022/11/03 10:24:26;;;;;;;0.10;0.10;;;;;;;0.14;67.30;99792.56;6251576;23;20371;-64
2022/11/03 10:26:53;;;;;;;0.65;0.10;;;;;;;0.13;67.41;99790.09;6223556;23;20035;-64
2022/11/03 10:29:22;;;;;;;0.40;0.20;;;;;;;0.13;67.38;99798.16;6249525;23;20031;-64
2022/11/03 10:31:50;;;;;;;0.17;0.10;;;;;;;0.05;67.68;99793.81;6250563;23;20309;-64
2022/11/03 10:34:25;;;;;;;0.13;0.13;;;;;;;0.05;67.46;99795.66;6249005;23;20047;-64
2022/11/03 10:37:10;;;;;;;0.10;0.10;;;;;;;-0.03;67.88;99796.69;6213100;23;20412;-65
2022/11/03 10:39:36;;;;;;;0.20;0.20;;;;;;;-0.02;68.20;99793.81;6163030;23;20016;-65
2022/11/03 10:42:02;;;;;;;0.10;0.10;;;;;;;-0.01;68.20;99791.91;6240102;23;20065;-64
2022/11/03 10:44:30;;;;;;;0.20;0.20;;;;;;;0.02;68.32;99793.38;6222996;23;20091;-64
2022/11/03 10:46:58;;;;;;;0.10;0.10;;;;;;;0.02;68.07;99788.84;6239805;23;20031;-65
2022/11/03 10:49:25;;;;;;;0.10;0.10;;;;;;;-0.03;67.88;99783.25;6232374;23;20108;-64
2022/11/03 10:51:53;;;;;;;0.10;0.10;;;;;;;-0.07;68.19;99787.38;6244637;23;20118;-64
2022/11/03 10:54:21;;;;;;;0.10;0.10;;;;;;;-0.18;68.10;99770.00;6233657;23;20016;-64
2022/11/03 10:56:49;;;;;;;0.10;0.10;;;;;;;-0.03;68.13;99788.63;6229574;23;20039;-64
2022/11/03 10:59:17;;;;;;;0.10;0.10;;;;;;;-0.04;68.14;99787.81;6205560;23;20044;-64
2022/11/03 11:01:44;;;;;;;;;;;;;;;-0.04;68.19;99786.97;6236438;23;20107;-64
2022/11/03 11:04:13;;;;;;;0.10;0.10;;;;;;;-0.10;68.31;99790.47;6235683;23;20356;-64
2022/11/03 11:06:40;;;;;;;0.10;0.10;;;;;;;-0.15;68.38;99796.47;6248329;23;20026;-64
2022/11/03 11:09:11;;;;;;;0.17;0.17;;;;;;;-0.18;68.60;99781.56;6211818;23;20458;-65
2022/11/03 11:11:37;;;;;;;0.13;0.13;;;;;;;-0.21;68.88;99792.72;6244759;23;20405;-64
2022/11/03 11:14:36;;;;;;;0.10;0.10;;;;;;;-0.19;68.85;99789.84;6212595;23;20359;-64
2022/11/03 11:17:05;;;;;;;0.10;0.10;;;;;;;-0.17;69.12;99791.28;6209702;23;20367;-64
2022/11/03 11:20:09;;;;;;;0.10;0.10;;;;;;;-0.15;69.00;99797.31;6247702;23;20028;-64
2022/11/03 11:22:35;;;;;;;0.25;0.17;;;;;;;-0.16;68.88;99798.34;6245572;23;20019;-64
2022/11/03 11:25:02;;;;;;;0.10;0.10;;;;;;;-0.17;69.10;99793.16;6222898;23;20016;-64
2022/11/03 11:27:49;;;;;;;;;;;;;;;-0.15;69.10;99799.16;6239119;23;20450;-64
2022/11/03 11:31:01;;;;;;;0.10;0.10;;;;;;;-0.15;68.85;99789.25;6199105;23;19926;-64
2022/11/03 11:33:31;;;;;;;0.10;0.10;;;;;;;-0.18;68.71;99795.00;6238439;23;20020;-64
2022/11/03 11:36:21;;;;;;;0.10;0.10;;;;;;;-0.17;69.03;99793.97;6248139;23;20024;-64
2022/11/03 11:39:09;;;;;;;0.17;0.10;;;;;;;-0.17;69.14;99795.84;6240386;23;20099;-64
2022/11/03 11:41:53;;;;;;;;;;;;;;;-0.17;69.25;99787.78;6238556;23;20038;-64
2022/11/03 11:44:49;;;;;;;0.47;0.20;;;;;;;-0.21;69.21;99775.78;6214906;23;20381;-64
2022/11/03 11:47:42;;;;;;;0.10;0.10;;;;;;;-0.27;69.50;99790.88;6195663;23;20097;-64
2022/11/03 11:50:26;;;;;;;0.20;0.20;;;;;;;-0.36;69.87;99779.47;6247309;23;20578;-67
2022/11/03 11:53:08;;;;;;;0.20;0.20;;;;;;;-0.35;69.85;99782.97;6233804;23;20471;-68
2022/11/03 11:55:39;;;;;;;0.13;0.13;;;;;;;-0.35;70.21;99789.19;6186154;23;20024;-68
2022/11/03 11:58:19;;;;;;;0.10;0.10;;;;;;;-0.37;70.20;99791.25;6238410;23;20024;-64
2022/11/03 12:00:56;;;;;;;0.10;0.10;;;;;;;-0.47;70.50;99785.44;6220811;23;20055;-68
2022/11/03 12:03:27;;;;;;;0.20;0.10;;;;;;;-0.42;70.44;99788.34;6247150;23;20024;-68
2022/11/03 12:05:55;;;;;;;0.10;0.10;;;;;;;-0.48;70.48;99784.59;6220924;23;20020;-68
2022/11/03 12:08:27;;;;;;;0.45;0.20;;;;;;;-0.47;70.58;99794.34;6245421;23;20016;-68
2022/11/03 12:10:55;;;;;;;0.10;0.10;;;;;;;-0.51;70.69;99782.31;6210251;23;20349;-68
2022/11/03 12:13:46;;;;;;;0.10;0.10;;;;;;;-0.44;70.51;99787.72;6245909;23;20032;-68
2022/11/03 12:16:29;;;;;;;0.22;0.20;;;;;;;-0.40;70.76;99791.66;6237625;23;20020;-68
2022/11/03 12:18:55;;;;;;;0.10;0.10;;;;;;;-0.40;70.61;99794.31;6244375;23;20513;-68
2022/11/03 12:21:47;;;;;;;0.20;0.20;;;;;;;-0.39;70.71;99797.84;6244777;23;20463;-68
2022/11/03 12:24:36;;;;;;;0.25;0.17;;;;;;;-0.36;70.55;99798.28;6221245;23;20448;-64
2022/11/03 12:27:15;;;;;;;0.20;0.20;;;;;;;-0.34;70.65;99798.06;6243388;23;20131;-64
2022/11/03 12:29:41;;;;;;;0.20;0.20;;;;;;;-0.35;70.60;99799.94;6217376;23;20103;-64
2022/11/03 12:32:07;;;;;;;0.10;0.10;;;;;;;-0.40;70.65;99793.53;6217274;23;20024;-64
2022/11/03 12:34:33;;;;;;;0.30;0.20;;;;;;;-0.38;70.88;99786.09;6237339;23;20028;-64
2022/11/03 12:37:01;;;;;;;0.30;0.17;;;;;;;-0.37;70.90;99788.56;6209078;23;20034;-64
2022/11/03 12:39:27;;;;;;;0.10;0.10;;;;;;;-0.36;70.69;99786.69;6204273;23;20054;-64
2022/11/03 12:41:53;;;;;;;0.63;0.20;;;;;;;-0.39;70.80;99790.66;6193239;23;20395;-64
2022/11/03 12:44:19;;;;;;;0.10;0.10;;;;;;;-0.43;70.74;99792.91;6230318;23;20416;-64
2022/11/03 12:46:46;;;;;;;0.38;0.20;;;;;;;-0.48;70.67;99784.59;6220369;23;20026;-64
2022/11/03 12:49:12;;;;;;;0.38;0.28;;;;;;;-0.50;70.92;99792.03;6210743;23;20020;-64
2022/11/03 12:51:38;;;;;;;0.13;0.13;;;;;;;-0.51;71.20;99790.38;6240056;23;20292;-64
2022/11/03 12:54:05;;;;;;;0.10;0.10;;;;;;;-0.51;70.99;99789.56;6238686;23;20016;-64
2022/11/03 12:56:31;;;;;;;0.20;0.20;;;;;;;-0.49;70.97;99792.88;6206696;23;20046;-66
2022/11/03 12:58:57;;;;;;;0.20;0.20;;;;;;;-0.47;71.12;99802.41;6244500;23;20047;-64
2022/11/03 13:01:23;;;;;;;0.10;0.10;;;;;;;-0.45;70.99;99799.50;6246943;23;20024;-64
2022/11/03 13:03:49;;;;;;;0.20;0.20;;;;;;;-0.48;71.04;99794.53;6237128;23;20028;-64
2022/11/03 13:06:15;;;;;;;0.20;0.20;;;;;;;-0.89;70.86;99743.34;6208497;23;20020;-64
2022/11/03 13:08:41;;;;;;;0.10;0.10;;;;;;;-0.63;70.92;99792.81;6246720;23;20066;-64
2022/11/03 13:13:54;;;;;;;0.10;0.10;;;;;;;-0.67;71.30;99791.59;6209414;23;20341;-64
2022/11/03 13:16:21;;;;;;;0.10;0.10;;;;;;;-0.64;71.26;99795.69;6186893;23;20020;-64
2022/11/03 13:18:47;;;;;;;0.10;0.10;;;;;;;-0.67;71.10;99798.78;6235711;23;20038;-64